createdAt,value
2023-03-18T00:04:08.500Z,28.69
2023-03-18T00:24:08.329Z,28.68
2023-03-18T00:44:08.300Z,28.66
2023-03-18T01:04:08.148Z,28.65
2023-03-18T01:24:07.749Z,28.65
2023-03-18T01:44:08.255Z,28.63
2023-03-18T02:04:08.284Z,28.61
2023-03-18T02:24:08.227Z,28.6
2023-03-18T02:44:08.219Z,28.59
2023-03-18T03:04:08.214Z,28.57
2023-03-18T03:24:07.436Z,28.56
2023-03-18T03:44:08.200Z,28.54
2023-03-18T04:24:08.246Z,28.51
2023-03-18T04:44:08.175Z,28.5
2023-03-18T05:04:07.472Z,28.49
2023-03-18T05:24:08.176Z,28.48
2023-03-18T05:44:08.160Z,28.46
2023-03-18T06:04:08.145Z,28.46
2023-03-18T06:24:07.650Z,28.43
2023-03-18T06:44:08.151Z,28.41
2023-03-18T07:04:08.168Z,28.39
2023-03-18T07:24:08.118Z,28.38
2023-03-18T07:44:08.115Z,28.36
2023-03-18T08:04:08.174Z,28.35
2023-03-18T08:24:07.577Z,28.35
2023-03-18T08:44:07.289Z,28.34
2023-03-18T09:04:08.045Z,28.32
2023-03-18T09:24:07.670Z,28.3
2023-03-18T09:44:07.251Z,28.29
2023-03-18T10:04:08.065Z,28.28
2023-03-18T10:24:07.974Z,28.27
2023-03-18T10:44:07.951Z,28.26
2023-03-18T11:04:07.943Z,28.24
2023-03-18T11:24:07.148Z,28.24
2023-03-18T11:44:07.901Z,28.21
2023-03-18T12:04:07.352Z,28.2
2023-03-18T12:24:07.843Z,28.19
2023-03-18T12:44:07.059Z,28.15
2023-03-18T13:04:07.817Z,28.15
2023-03-18T13:24:07.776Z,28.14
2023-03-18T13:44:07.761Z,28.13
2023-03-18T14:04:06.966Z,28.13
2023-03-18T14:24:08.219Z,28.12
2023-03-18T14:44:06.936Z,28.11
2023-03-18T15:24:07.133Z,28.1
2023-03-18T15:44:07.649Z,28.11
2023-03-18T16:24:07.779Z,28.26
2023-03-18T16:44:07.609Z,28.28
2023-03-18T17:04:07.651Z,28.31
2023-03-18T17:24:07.054Z,28.33
2023-03-18T17:44:07.559Z,28.35
2023-03-18T18:04:07.591Z,28.37
2023-03-18T18:24:07.068Z,28.39
2023-03-18T18:44:07.035Z,28.41
2023-03-18T19:04:07.586Z,28.43
2023-03-18T19:24:07.549Z,28.46
2023-03-18T19:44:07.562Z,28.47
2023-03-18T20:04:06.851Z,28.48
2023-03-18T20:24:07.510Z,28.49
2023-03-18T20:44:07.522Z,28.5
2023-03-18T21:04:07.582Z,28.51
2023-03-18T21:24:07.513Z,28.51
2023-03-18T21:44:07.520Z,28.51
2023-03-18T22:04:07.024Z,28.52
2023-03-18T22:24:07.510Z,28.53
2023-03-18T22:44:07.514Z,28.53
2023-03-18T23:04:07.523Z,28.53
2023-03-18T23:24:07.405Z,28.53
2023-03-18T23:44:07.502Z,28.53
